Time;durP1;ratioP1;P1;durP2;ratioP2;P2;SDS_P1;SDS_P2;PMS_P1;PMS_P2;Temp;Humidity;BMP_temperature;BMP_pressure;BME280_temperature;BME280_humidity;BME280_pressure;Samples;Min_cycle;Max_cycle;Signal;HPM_P1;HPM_P2
2022/12/26 00:01:56;;;;;;;0.80;0.80;;;11.90;99.90;;;;;;5120203;27;20683;-63
2022/12/26 00:04:23;;;;;;;0.90;0.90;;;11.90;99.90;;;;;;5122260;27;20333;-62
2022/12/26 00:06:50;;;;;;;1.00;1.00;;;11.90;99.90;;;;;;5123081;27;20303;-61
2022/12/26 00:09:17;;;;;;;0.80;0.80;;;11.90;99.90;;;;;;5117770;27;20206;-61
2022/12/26 00:11:44;;;;;;;1.10;1.07;;;11.90;99.90;;;;;;5126302;27;20285;-61
2022/12/26 00:14:13;;;;;;;0.80;0.80;;;11.90;99.90;;;;;;5119209;27;20255;-63
2022/12/26 00:16:42;;;;;;;0.83;0.83;;;11.90;99.90;;;;;;5129866;27;20212;-61
2022/12/26 00:19:11;;;;;;;0.90;0.90;;;11.90;99.90;;;;;;5119338;27;20202;-62
2022/12/26 00:21:38;;;;;;;0.80;0.80;;;12.00;99.90;;;;;;5124942;27;20652;-61
2022/12/26 00:24:05;;;;;;;0.80;0.80;;;12.00;99.90;;;;;;5120320;27;20676;-63
2022/12/26 00:26:34;;;;;;;0.70;0.70;;;12.00;99.90;;;;;;5118772;27;20204;-60
2022/12/26 00:29:01;;;;;;;0.90;0.90;;;12.00;99.90;;;;;;5122366;27;20202;-62
2022/12/26 00:31:31;;;;;;;0.90;0.90;;;12.00;99.90;;;;;;5120138;27;20321;-61
2022/12/26 00:33:58;;;;;;;0.97;0.90;;;12.00;99.90;;;;;;5126669;27;20548;-61
2022/12/26 00:36:29;;;;;;;0.60;0.60;;;12.10;99.90;;;;;;5126987;27;20208;-62
2022/12/26 00:38:56;;;;;;;0.90;0.90;;;12.10;99.90;;;;;;5129910;27;20236;-62
2022/12/26 00:41:23;;;;;;;0.80;0.80;;;12.10;99.90;;;;;;5126898;27;20225;-63
2022/12/26 00:43:50;;;;;;;0.73;0.73;;;12.20;99.90;;;;;;5124434;27;20202;-63
2022/12/26 00:46:18;;;;;;;0.70;0.70;;;12.20;99.90;;;;;;5124292;27;20659;-63
2022/12/26 00:48:45;;;;;;;0.90;0.90;;;12.10;99.90;;;;;;5125658;27;20219;-64
2022/12/26 00:51:12;;;;;;;0.70;0.70;;;12.20;99.90;;;;;;5125814;27;20919;-62
2022/12/26 00:53:41;;;;;;;0.70;0.70;;;12.10;99.90;;;;;;5131920;22;20616;-74
2022/12/26 00:56:09;;;;;;;0.90;0.90;;;12.10;99.90;;;;;;5104287;28;20234;-74
2022/12/26 00:58:37;;;;;;;0.70;0.70;;;12.10;99.90;;;;;;5112626;28;20202;-74
2022/12/26 01:01:14;;;;;;;1.03;0.80;;;12.10;99.90;;;;;;5096379;28;20207;-74
2022/12/26 01:03:43;;;;;;;0.80;0.80;;;12.10;99.90;;;;;;5105705;28;20226;-75
2022/12/26 01:06:10;;;;;;;1.00;1.00;;;12.00;99.90;;;;;;5104172;28;20507;-74
2022/12/26 01:08:37;;;;;;;0.90;0.90;;;12.00;99.90;;;;;;5109445;28;20198;-75
2022/12/26 01:11:08;;;;;;;0.80;0.80;;;12.00;99.90;;;;;;5096687;28;20400;-75
2022/12/26 01:13:35;;;;;;;0.73;0.73;;;12.00;99.90;;;;;;5102601;28;20268;-74
2022/12/26 01:16:03;;;;;;;0.80;0.80;;;12.00;99.90;;;;;;5100886;28;20210;-74
2022/12/26 01:18:30;;;;;;;0.80;0.80;;;12.00;99.90;;;;;;5113272;28;20220;-74
2022/12/26 01:21:02;;;;;;;0.90;0.90;;;11.90;99.90;;;;;;5113877;28;20198;-75
2022/12/26 01:23:29;;;;;;;0.90;0.90;;;12.00;99.90;;;;;;5092307;28;20536;-75
2022/12/26 01:25:56;;;;;;;1.00;1.00;;;12.00;99.90;;;;;;5111964;28;20254;-74
2022/12/26 01:28:25;;;;;;;0.80;0.80;;;12.00;99.90;;;;;;5102434;28;20544;-74
2022/12/26 01:30:52;;;;;;;0.80;0.80;;;12.00;99.90;;;;;;5101948;28;20219;-74
2022/12/26 01:33:19;;;;;;;0.90;0.90;;;12.10;99.90;;;;;;5098168;28;20221;-73
2022/12/26 01:35:55;;;;;;;0.80;0.80;;;12.20;99.90;;;;;;5100600;28;20203;-74
2022/12/26 01:38:22;;;;;;;0.70;0.70;;;12.20;99.90;;;;;;5114163;28;20190;-75
2022/12/26 01:41:15;;;;;;;0.90;0.90;;;12.30;99.90;;;;;;5107446;28;20191;-75
2022/12/26 01:43:54;;;;;;;1.10;0.97;;;12.30;99.90;;;;;;5090730;28;20230;-75
2022/12/26 01:46:25;;;;;;;0.80;0.80;;;12.30;99.90;;;;;;5096608;28;20194;-74
2022/12/26 01:48:53;;;;;;;0.90;0.90;;;12.30;99.90;;;;;;5113631;28;20189;-76
2022/12/26 01:51:24;;;;;;;0.80;0.80;;;12.40;99.90;;;;;;5099837;28;20222;-74
2022/12/26 01:53:58;;;;;;;0.77;0.77;;;12.40;99.90;;;;;;5104969;28;20287;-73
2022/12/26 01:56:30;;;;;;;0.80;0.80;;;12.40;99.90;;;;;;5094891;28;20472;-74
2022/12/26 01:59:05;;;;;;;0.73;0.73;;;12.50;99.90;;;;;;5093594;28;20191;-75
2022/12/26 02:01:35;;;;;;;0.70;0.70;;;12.50;99.90;;;;;;5105154;28;20202;-76
2022/12/26 02:06:51;;;;;;;0.93;0.93;;;12.50;99.90;;;;;;5104856;28;20278;-78
2022/12/26 02:09:19;;;;;;;1.00;1.00;;;12.50;99.90;;;;;;5103112;28;20206;-76
2022/12/26 02:11:51;;;;;;;0.83;0.83;;;12.60;99.90;;;;;;5106254;28;20222;-76
2022/12/26 02:14:20;;;;;;;0.67;0.67;;;12.70;99.90;;;;;;5104373;28;20631;-76
2022/12/26 02:16:47;;;;;;;0.80;0.80;;;12.70;99.90;;;;;;5111125;28;20243;-76
2022/12/26 02:19:29;;;;;;;0.80;0.80;;;12.70;99.90;;;;;;5104603;28;20652;-78
2022/12/26 02:22:27;;;;;;;0.83;0.83;;;12.70;99.90;;;;;;5108137;28;20285;-76
2022/12/26 02:25:20;;;;;;;0.70;0.70;;;12.60;99.90;;;;;;5093825;28;20201;-76
2022/12/26 02:28:13;;;;;;;1.00;1.00;;;12.50;99.90;;;;;;5090734;28;20202;-76
2022/12/26 02:30:46;;;;;;;0.77;0.77;;;12.50;99.90;;;;;;5086148;28;20649;-76
2022/12/26 02:33:24;;;;;;;0.70;0.70;;;12.40;99.90;;;;;;5091411;28;20706;-77
2022/12/26 02:36:09;;;;;;;1.00;1.00;;;12.50;99.90;;;;;;5086658;28;20198;-76
2022/12/26 02:38:47;;;;;;;0.90;0.90;;;12.50;99.90;;;;;;5098382;28;20571;-76
2022/12/26 02:41:25;;;;;;;1.10;1.00;;;12.50;99.90;;;;;;5096323;28;20218;-76
2022/12/26 02:47:01;;;;;;;0.97;0.97;;;12.60;99.90;;;;;;5090078;28;20271;-76
2022/12/26 02:47:04;;;;;;;0.77;0.77;;;12.60;99.90;;;;;;5097010;28;20204;-76
2022/12/26 03:15:21;;;;;;;0.80;0.60;;;12.60;99.90;;;;;;5095150;28;20275;-76
2022/12/26 03:17:51;;;;;;;0.80;0.80;;;12.70;99.90;;;;;;5090480;28;20564;-76
2022/12/26 03:20:23;;;;;;;0.60;0.60;;;12.80;99.90;;;;;;5096277;28;20541;-76
2022/12/26 03:22:54;;;;;;;0.70;0.70;;;13.00;99.90;;;;;;5092981;28;20227;-76
2022/12/26 03:28:11;;;;;;;0.70;0.70;;;13.10;99.90;;;;;;5096112;28;20205;-76
2022/12/26 03:30:49;;;;;;;0.90;0.90;;;13.10;99.90;;;;;;5093899;28;20199;-77
2022/12/26 03:36:05;;;;;;;0.90;0.90;;;13.00;99.90;;;;;;5091840;28;20667;-76
2022/12/26 03:38:49;;;;;;;0.70;0.70;;;13.00;99.90;;;;;;5087904;28;20261;-76
2022/12/26 04:19:53;;;;;;;0.77;0.77;;;12.70;99.90;;;;;;5080657;28;20218;-76
2022/12/26 04:45:23;;;;;;;0.73;0.73;;;13.00;99.90;;;;;;5109343;28;20236;-76
2022/12/26 04:50:59;;;;;;;0.87;0.80;;;13.10;99.90;;;;;;5053746;28;20206;-76
2022/12/26 04:53:41;;;;;;;0.60;0.60;;;13.00;99.90;;;;;;5115289;28;20313;-77
2022/12/26 04:59:17;;;;;;;0.80;0.80;;;13.10;99.90;;;;;;5099911;28;20202;-75
2022/12/26 05:10:25;;;;;;;0.67;0.67;;;13.10;99.90;;;;;;5114159;28;20214;-75
2022/12/26 05:13:04;;;;;;;0.60;0.60;;;13.10;99.90;;;;;;5109115;28;20218;-77
2022/12/26 05:29:38;;;;;;;0.80;0.80;;;13.70;99.90;;;;;;5092985;28;20207;-76
2022/12/26 05:32:06;;;;;;;0.60;0.60;;;13.80;99.90;;;;;;5104431;28;20283;-77
2022/12/26 05:34:44;;;;;;;0.60;0.60;;;13.80;99.90;;;;;;5095961;28;20247;-77
2022/12/26 05:37:37;;;;;;;0.80;0.80;;;13.80;99.90;;;;;;5106583;28;20308;-76
2022/12/26 05:40:06;;;;;;;0.77;0.77;;;13.90;99.90;;;;;;5107965;27;20651;-77
2022/12/26 05:42:39;;;;;;;0.77;0.77;;;14.00;99.90;;;;;;5108554;28;20242;-76
2022/12/26 05:45:13;;;;;;;0.97;0.90;;;14.00;99.90;;;;;;5110985;28;20226;-77
2022/12/26 05:48:00;;;;;;;0.67;0.67;;;14.10;99.90;;;;;;5100516;28;20296;-77
2022/12/26 05:50:44;;;;;;;0.60;0.60;;;14.20;99.90;;;;;;5109587;28;20289;-77
2022/12/26 05:53:27;;;;;;;0.70;0.70;;;14.20;99.90;;;;;;5111693;28;20222;-76
2022/12/26 05:56:07;;;;;;;0.67;0.67;;;14.20;99.90;;;;;;5098780;28;20214;-76
2022/12/26 05:58:43;;;;;;;0.80;0.80;;;14.20;99.90;;;;;;5099850;28;20210;-76
2022/12/26 06:01:23;;;;;;;0.50;0.50;;;14.30;99.90;;;;;;5108361;28;20274;-76
2022/12/26 06:12:55;;;;;;;0.70;0.70;;;14.40;99.90;;;;;;5101415;28;20310;-77
2022/12/26 06:15:29;;;;;;;0.60;0.60;;;14.40;99.90;;;;;;5114340;28;20197;-77
2022/12/26 06:18:22;;;;;;;0.67;0.67;;;14.50;99.90;;;;;;5108954;28;20202;-78
2022/12/26 06:20:56;;;;;;;0.60;0.60;;;14.50;99.90;;;;;;5098380;28;20201;-76
2022/12/26 06:23:34;;;;;;;0.50;0.50;;;14.50;99.90;;;;;;5109381;28;20229;-77
2022/12/26 06:26:11;;;;;;;0.70;0.70;;;14.50;99.90;;;;;;5108881;28;20553;-77
2022/12/26 06:31:40;;;;;;;0.73;0.73;;;14.50;99.90;;;;;;5099003;28;20634;-76
2022/12/26 06:34:37;;;;;;;0.70;0.70;;;14.50;99.90;;;;;;5110215;28;20238;-76
2022/12/26 06:37:20;;;;;;;0.50;0.50;;;14.50;99.90;;;;;;5100398;28;20211;-76
2022/12/26 06:40:03;;;;;;;0.80;0.80;;;14.50;99.90;;;;;;5111461;28;20600;-76
2022/12/26 06:42:40;;;;;;;0.80;0.80;;;14.50;99.90;;;;;;5091839;28;20205;-76
2022/12/26 06:45:18;;;;;;;0.63;0.63;;;14.50;99.90;;;;;;5109600;28;20189;-76
2022/12/26 06:50:42;;;;;;;0.70;0.70;;;14.40;99.90;;;;;;5098932;28;20193;-75
2022/12/26 06:53:16;;;;;;;0.80;0.80;;;14.30;99.90;;;;;;5111278;28;20253;-77
2022/12/26 06:55:53;;;;;;;0.70;0.70;;;14.20;99.90;;;;;;5108837;28;20222;-77
2022/12/26 06:58:42;;;;;;;0.83;0.83;;;14.20;99.90;;;;;;5097464;28;20205;-77
2022/12/26 07:01:27;;;;;;;0.77;0.77;;;14.10;99.90;;;;;;5098282;28;20211;-76
2022/12/26 07:04:17;;;;;;;0.73;0.73;;;14.00;99.90;;;;;;5100236;28;20726;-77
2022/12/26 07:06:53;;;;;;;0.60;0.60;;;14.00;99.90;;;;;;5097494;28;20285;-77
2022/12/26 07:09:26;;;;;;;0.70;0.70;;;14.00;99.90;;;;;;5107429;28;21086;-76
2022/12/26 07:12:09;;;;;;;1.10;0.77;;;14.00;99.90;;;;;;5110566;28;20218;-77
2022/12/26 07:14:37;;;;;;;0.70;0.70;;;14.00;99.90;;;;;;5091975;28;20223;-76
2022/12/26 07:17:11;;;;;;;0.70;0.70;;;14.00;99.90;;;;;;5108747;28;20617;-79
2022/12/26 07:19:38;;;;;;;0.80;0.80;;;13.90;99.90;;;;;;5106420;28;20210;-77
2022/12/26 07:22:21;;;;;;;0.73;0.73;;;13.90;99.90;;;;;;5110171;28;20577;-77
2022/12/26 07:24:55;;;;;;;0.77;0.77;;;13.80;99.90;;;;;;5097259;28;20766;-76
2022/12/26 07:27:29;;;;;;;0.80;0.80;;;13.70;99.90;;;;;;5111985;28;20198;-75
2022/12/26 07:30:11;;;;;;;0.60;0.60;;;13.70;99.90;;;;;;5105219;28;20201;-76
2022/12/26 07:32:48;;;;;;;0.70;0.70;;;13.60;99.90;;;;;;5104555;28;20249;-76
2022/12/26 07:35:21;;;;;;;1.20;1.20;;;13.60;99.90;;;;;;5095671;28;20552;-76
2022/12/26 07:37:55;;;;;;;1.10;1.10;;;13.60;99.90;;;;;;5105179;28;20252;-76
2022/12/26 07:43:07;;;;;;;0.90;0.90;;;13.60;99.90;;;;;;5104286;28;20218;-76
2022/12/26 07:45:38;;;;;;;1.53;1.10;;;13.50;99.90;;;;;;5113016;28;20251;-77
2022/12/26 07:48:11;;;;;;;0.90;0.90;;;13.50;99.90;;;;;;5117003;28;20563;-76
2022/12/26 07:50:53;;;;;;;0.70;0.70;;;13.50;99.90;;;;;;5110977;28;20580;-77
2022/12/26 07:53:21;;;;;;;1.00;1.00;;;13.50;99.90;;;;;;5105009;28;20598;-76
2022/12/26 07:55:51;;;;;;;0.90;0.90;;;13.50;99.90;;;;;;5101967;28;20203;-77
2022/12/26 07:58:20;;;;;;;1.00;1.00;;;13.50;99.90;;;;;;5109500;28;20545;-77
2022/12/26 08:00:54;;;;;;;1.00;1.00;;;13.50;99.90;;;;;;5109394;28;20627;-76
2022/12/26 08:03:21;;;;;;;0.80;0.80;;;13.50;99.90;;;;;;5094539;28;20590;-77
2022/12/26 08:06:03;;;;;;;0.70;0.70;;;13.40;99.90;;;;;;5098322;28;20195;-77
2022/12/26 08:08:32;;;;;;;0.97;0.97;;;13.40;99.90;;;;;;5089430;28;20216;-76
2022/12/26 08:11:01;;;;;;;1.00;1.00;;;13.40;99.90;;;;;;5113869;28;20210;-76
2022/12/26 08:13:37;;;;;;;1.00;1.00;;;13.40;99.90;;;;;;5099781;28;20257;-77
2022/12/26 08:16:10;;;;;;;0.80;0.80;;;13.40;99.90;;;;;;5083206;28;20463;-76
2022/12/26 08:18:41;;;;;;;0.80;0.80;;;13.40;99.90;;;;;;5110846;28;20225;-76
2022/12/26 08:21:15;;;;;;;1.00;1.00;;;13.30;99.90;;;;;;5099019;28;20686;-76
2022/12/26 08:23:54;;;;;;;1.17;1.17;;;13.20;99.90;;;;;;5108344;28;20313;-75
2022/12/26 08:26:37;;;;;;;0.80;0.80;;;13.10;99.90;;;;;;5095161;28;20202;-76
2022/12/26 08:29:10;;;;;;;0.93;0.93;;;12.90;99.90;;;;;;5095345;28;20670;-75
2022/12/26 08:31:42;;;;;;;1.20;1.20;;;12.80;99.90;;;;;;5098314;28;20252;-76
2022/12/26 08:34:12;;;;;;;1.10;1.10;;;12.90;99.90;;;;;;5095352;28;20230;-76
2022/12/26 08:36:56;;;;;;;1.00;1.00;;;13.00;99.90;;;;;;5096479;28;20230;-76
2022/12/26 08:39:25;;;;;;;1.20;1.20;;;13.00;99.90;;;;;;5094845;28;20203;-76
2022/12/26 08:42:10;;;;;;;1.00;1.00;;;13.00;99.90;;;;;;5100718;28;20198;-77
2022/12/26 08:44:40;;;;;;;1.10;1.10;;;13.00;99.90;;;;;;5091274;28;20226;-73
2022/12/26 08:47:10;;;;;;;1.13;1.13;;;13.00;99.90;;;;;;5096458;28;20217;-74
2022/12/26 08:49:37;;;;;;;0.80;0.80;;;13.00;99.90;;;;;;5095944;28;20226;-73
2022/12/26 08:52:08;;;;;;;1.00;1.00;;;13.00;99.90;;;;;;5094907;28;20295;-74
2022/12/26 08:54:42;;;;;;;1.03;1.03;;;13.10;99.90;;;;;;5094308;28;20234;-73
2022/12/26 08:57:09;;;;;;;1.00;1.00;;;13.10;99.90;;;;;;5094286;28;20213;-72
2022/12/26 08:59:43;;;;;;;0.90;0.90;;;13.10;99.90;;;;;;5094820;28;20214;-73
2022/12/26 09:02:24;;;;;;;1.00;1.00;;;13.10;99.90;;;;;;5094566;28;20271;-73
2022/12/26 09:05:02;;;;;;;0.80;0.80;;;13.10;99.90;;;;;;5095190;28;20187;-74
2022/12/26 09:07:29;;;;;;;0.80;0.80;;;13.10;99.90;;;;;;5094469;28;20243;-75
2022/12/26 09:09:56;;;;;;;1.13;1.13;;;13.10;99.90;;;;;;5094046;28;20267;-74
2022/12/26 09:12:23;;;;;;;1.00;1.00;;;13.00;99.90;;;;;;5093431;28;20689;-74
2022/12/26 09:14:51;;;;;;;1.10;1.10;;;13.00;99.90;;;;;;5093738;28;20740;-76
2022/12/26 09:17:19;;;;;;;0.90;0.90;;;13.10;99.90;;;;;;5104981;28;20225;-74
2022/12/26 09:19:46;;;;;;;0.90;0.90;;;13.10;99.90;;;;;;5115025;28;20675;-74
2022/12/26 09:24:57;;;;;;;1.00;1.00;;;13.00;99.90;;;;;;5116473;28;20177;-75
2022/12/26 09:27:24;;;;;;;1.00;1.00;;;13.00;99.90;;;;;;5116179;28;20692;-75
2022/12/26 09:29:52;;;;;;;0.90;0.90;;;13.00;99.90;;;;;;5116349;28;20198;-75
2022/12/26 09:32:20;;;;;;;1.07;1.07;;;13.00;99.90;;;;;;5116458;28;20229;-75
2022/12/26 09:34:48;;;;;;;1.17;0.90;;;13.00;99.90;;;;;;5116506;28;20229;-75
2022/12/26 09:37:16;;;;;;;0.80;0.80;;;13.00;99.90;;;;;;5117344;28;20218;-74
2022/12/26 09:39:43;;;;;;;1.00;1.00;;;13.00;99.90;;;;;;5118534;28;20271;-75
2022/12/26 09:42:20;;;;;;;1.00;1.00;;;13.00;99.90;;;;;;5117544;28;20186;-74
2022/12/26 09:44:55;;;;;;;1.00;1.00;;;12.90;99.90;;;;;;5118078;28;20271;-74
2022/12/26 09:47:32;;;;;;;1.00;1.00;;;12.90;99.90;;;;;;5116878;28;20213;-74
2022/12/26 09:50:03;;;;;;;1.00;1.00;;;12.90;99.90;;;;;;5117818;28;20269;-75
2022/12/26 09:52:39;;;;;;;1.00;1.00;;;13.00;99.90;;;;;;5118204;28;20209;-74
2022/12/26 09:55:24;;;;;;;0.73;0.73;;;13.00;99.90;;;;;;5117206;28;20650;-74
2022/12/26 09:57:55;;;;;;;0.90;0.90;;;13.00;99.90;;;;;;5117460;28;20186;-74
2022/12/26 10:00:27;;;;;;;0.80;0.80;;;12.90;99.90;;;;;;5118743;28;20759;-72
2022/12/26 10:02:59;;;;;;;0.90;0.90;;;12.90;99.90;;;;;;5117440;28;20217;-73
2022/12/26 10:05:32;;;;;;;0.90;0.90;;;12.90;99.90;;;;;;5117691;28;20193;-73
2022/12/26 10:08:04;;;;;;;1.00;1.00;;;12.80;99.90;;;;;;5116615;28;20603;-73
2022/12/26 10:10:44;;;;;;;0.53;0.53;;;12.90;99.90;;;;;;5116104;28;20193;-76
2022/12/26 10:13:26;;;;;;;0.80;0.80;;;12.90;99.90;;;;;;5075990;28;20306;-73
2022/12/26 10:15:59;;;;;;;0.57;0.57;;;12.90;99.90;;;;;;5076791;28;20628;-74
2022/12/26 10:18:37;;;;;;;0.67;0.67;;;12.80;99.90;;;;;;5078232;28;20605;-74
2022/12/26 10:21:16;;;;;;;0.53;0.53;;;12.80;99.90;;;;;;5077240;28;20180;-73
2022/12/26 10:23:47;;;;;;;0.80;0.80;;;12.80;99.90;;;;;;5077714;28;20261;-73
2022/12/26 10:26:18;;;;;;;0.63;0.63;;;12.80;99.90;;;;;;5076431;28;20821;-74
2022/12/26 10:28:49;;;;;;;0.60;0.60;;;12.80;99.90;;;;;;5075828;28;20659;-74
2022/12/26 10:31:22;;;;;;;0.43;0.43;;;12.70;99.90;;;;;;5075825;28;20188;-73
2022/12/26 10:33:54;;;;;;;0.70;0.70;;;12.70;99.90;;;;;;5075106;28;20707;-73
2022/12/26 10:36:29;;;;;;;0.60;0.60;;;12.60;99.90;;;;;;5076087;28;20207;-73
2022/12/26 10:39:00;;;;;;;0.50;0.50;;;12.50;99.90;;;;;;5076405;28;20183;-74
2022/12/26 10:41:33;;;;;;;0.77;0.77;;;12.50;99.90;;;;;;5074223;28;20211;-78
2022/12/26 10:44:00;;;;;;;0.70;0.70;;;12.50;99.90;;;;;;5107341;28;20218;-74
2022/12/26 10:46:51;;;;;;;0.80;0.80;;;12.50;99.90;;;;;;5114661;28;20202;-75
2022/12/26 10:49:22;;;;;;;0.60;0.60;;;12.50;99.90;;;;;;5113694;28;20213;-73
2022/12/26 10:51:50;;;;;;;0.60;0.60;;;12.40;99.90;;;;;;5116149;28;20191;-75
2022/12/26 10:54:19;;;;;;;0.67;0.67;;;12.40;99.90;;;;;;5114856;28;20230;-74
2022/12/26 10:56:48;;;;;;;0.47;0.47;;;12.40;99.90;;;;;;5115699;28;20210;-74
2022/12/26 10:59:20;;;;;;;0.60;0.60;;;12.40;99.90;;;;;;5116046;28;20209;-74
2022/12/26 11:01:49;;;;;;;0.80;0.80;;;12.40;99.90;;;;;;5116790;28;20244;-73
2022/12/26 11:04:19;;;;;;;0.60;0.60;;;12.40;99.90;;;;;;5115548;28;20236;-75
2022/12/26 11:06:51;;;;;;;0.60;0.60;;;12.40;99.90;;;;;;5115707;28;20200;-73
2022/12/26 11:09:34;;;;;;;0.63;0.63;;;12.40;99.90;;;;;;5115057;28;20257;-73
2022/12/26 11:12:01;;;;;;;0.50;0.50;;;12.40;99.90;;;;;;5115971;28;20675;-74
2022/12/26 11:14:36;;;;;;;0.60;0.60;;;12.30;99.90;;;;;;5115708;28;20255;-74
2022/12/26 11:17:07;;;;;;;0.60;0.60;;;12.40;99.90;;;;;;5115776;28;20193;-73
2022/12/26 11:19:38;;;;;;;0.50;0.50;;;12.30;99.90;;;;;;5117961;28;20217;-72
2022/12/26 11:22:23;;;;;;;0.80;0.80;;;12.40;99.90;;;;;;5120291;28;20197;-73
2022/12/26 11:25:18;;;;;;;0.70;0.70;;;12.30;99.90;;;;;;5119832;28;20609;-75
2022/12/26 11:27:49;;;;;;;0.80;0.80;;;12.30;99.90;;;;;;5119474;28;20182;-75
2022/12/26 11:30:26;;;;;;;0.70;0.70;;;12.40;99.90;;;;;;5119680;28;20251;-72
2022/12/26 11:33:13;;;;;;;0.80;0.80;;;12.40;99.90;;;;;;5119245;28;20222;-74
2022/12/26 11:35:48;;;;;;;0.70;0.70;;;12.40;99.90;;;;;;5119200;28;20182;-73
2022/12/26 11:43:48;;;;;;;0.60;0.60;;;12.40;99.90;;;;;;5118854;28;20220;-72
2022/12/26 11:46:15;;;;;;;0.70;0.70;;;12.30;99.90;;;;;;5119509;28;20202;-73
2022/12/26 11:48:50;;;;;;;0.70;0.70;;;12.30;99.90;;;;;;5117643;28;20232;-73
2022/12/26 11:51:34;;;;;;;0.80;0.80;;;12.30;99.90;;;;;;5117517;28;20234;-74
2022/12/26 11:54:18;;;;;;;0.70;0.70;;;12.30;99.90;;;;;;5116175;28;20226;-73
2022/12/26 11:56:46;;;;;;;0.57;0.57;;;12.20;99.90;;;;;;5117035;27;20216;-74
2022/12/26 11:59:19;;;;;;;0.77;0.77;;;12.20;99.90;;;;;;5118770;28;20646;-74
2022/12/26 12:01:46;;;;;;;0.70;0.70;;;12.20;99.90;;;;;;5117492;28;20186;-73
2022/12/26 12:04:16;;;;;;;0.60;0.60;;;12.30;99.90;;;;;;5117697;28;20313;-74
2022/12/26 12:06:53;;;;;;;0.80;0.80;;;12.20;99.90;;;;;;5117915;28;20196;-72
2022/12/26 12:09:31;;;;;;;0.70;0.70;;;12.30;99.90;;;;;;5117293;28;20235;-73
2022/12/26 12:12:08;;;;;;;0.73;0.73;;;12.30;99.90;;;;;;5116291;28;20190;-72
2022/12/26 12:14:50;;;;;;;0.70;0.70;;;12.30;99.90;;;;;;5115942;28;20225;-72
2022/12/26 12:17:29;;;;;;;0.70;0.70;;;12.20;99.90;;;;;;5116560;28;20239;-74
2022/12/26 12:20:17;;;;;;;0.90;0.90;;;12.20;99.90;;;;;;5102756;28;20195;-76
2022/12/26 12:23:10;;;;;;;0.67;0.67;;;12.20;99.90;;;;;;5091505;28;20198;-74
2022/12/26 12:25:50;;;;;;;1.00;1.00;;;12.30;99.90;;;;;;5096956;28;20248;-75
2022/12/26 12:28:49;;;;;;;0.87;0.87;;;12.20;99.90;;;;;;5091221;28;20237;-75
2022/12/26 12:31:26;;;;;;;0.70;0.70;;;12.20;99.90;;;;;;5076924;28;20202;-75
2022/12/26 12:34:02;;;;;;;0.70;0.70;;;12.20;99.90;;;;;;5107258;28;20226;-75
2022/12/26 12:36:36;;;;;;;0.60;0.60;;;12.20;99.90;;;;;;5105874;28;20228;-74
2022/12/26 12:39:12;;;;;;;0.50;0.50;;;12.20;99.90;;;;;;5108393;28;20198;-75
2022/12/26 12:42:03;;;;;;;0.50;0.50;;;12.10;99.90;;;;;;5105617;28;20274;-74
2022/12/26 12:44:44;;;;;;;0.60;0.60;;;12.10;99.90;;;;;;5097869;28;20218;-74
2022/12/26 12:47:20;;;;;;;0.50;0.50;;;12.10;99.90;;;;;;5114283;28;20256;-75
2022/12/26 12:49:58;;;;;;;0.67;0.67;;;12.10;99.90;;;;;;5095328;28;20703;-74
2022/12/26 12:52:40;;;;;;;0.80;0.80;;;12.20;99.90;;;;;;5114934;28;20235;-73
2022/12/26 12:55:31;;;;;;;0.83;0.83;;;12.20;99.90;;;;;;5102761;28;20222;-75
2022/12/26 12:58:05;;;;;;;0.90;0.90;;;12.20;99.90;;;;;;5108421;28;20608;-74
2022/12/26 13:00:43;;;;;;;0.90;0.90;;;12.20;99.90;;;;;;5095012;28;20187;-75
2022/12/26 13:03:14;;;;;;;1.10;1.10;;;12.20;99.90;;;;;;5096825;28;20222;-75
2022/12/26 13:05:47;;;;;;;1.07;0.93;;;12.20;99.90;;;;;;5114709;28;20708;-74
2022/12/26 13:08:22;;;;;;;0.80;0.80;;;12.20;99.90;;;;;;5097755;28;20678;-75
2022/12/26 13:10:55;;;;;;;0.90;0.90;;;12.30;99.90;;;;;;5116998;28;20190;-76
2022/12/26 13:13:28;;;;;;;1.00;1.00;;;12.20;99.90;;;;;;5116797;28;20272;-76
2022/12/26 13:16:00;;;;;;;0.90;0.90;;;12.20;99.90;;;;;;5116238;28;20178;-73
2022/12/26 13:18:31;;;;;;;0.90;0.90;;;12.20;99.90;;;;;;5110822;28;20654;-74
2022/12/26 13:21:03;;;;;;;1.10;1.10;;;12.20;99.90;;;;;;5117534;28;20688;-74
2022/12/26 13:26:19;;;;;;;0.73;0.73;;;12.20;99.90;;;;;;5082333;28;20641;-75
2022/12/26 13:28:59;;;;;;;1.20;1.20;;;12.20;99.90;;;;;;5117596;28;20204;-74
2022/12/26 13:31:31;;;;;;;1.50;1.40;;;12.20;99.90;;;;;;5117145;28;20210;-75
2022/12/26 13:33:58;;;;;;;1.10;1.10;;;12.20;99.90;;;;;;5107755;28;20696;-74
2022/12/26 13:36:43;;;;;;;1.00;1.00;;;12.20;99.90;;;;;;5097422;28;20263;-74
2022/12/26 13:39:37;;;;;;;0.63;0.63;;;12.30;99.90;;;;;;5098794;28;20186;-73
2022/12/26 13:45:58;;;;;;;0.50;0.50;;;12.20;99.90;;;;;;5097837;28;20251;-75
2022/12/26 13:49:02;;;;;;;0.70;0.70;;;12.20;99.90;;;;;;5096395;28;20198;-75
2022/12/26 13:51:47;;;;;;;0.57;0.57;;;12.20;99.90;;;;;;5099972;28;20661;-73
2022/12/26 13:54:15;;;;;;;0.70;0.70;;;12.30;99.90;;;;;;5111632;28;20685;-74
2022/12/26 13:57:20;;;;;;;0.80;0.80;;;12.30;99.90;;;;;;5095797;28;20703;-74
2022/12/26 14:00:21;;;;;;;0.60;0.60;;;12.30;99.90;;;;;;5114991;28;20210;-73
2022/12/26 14:03:24;;;;;;;0.60;0.60;;;12.30;99.90;;;;;;5109027;28;20263;-73
2022/12/26 14:06:12;;;;;;;0.40;0.40;;;12.40;99.90;;;;;;5113865;28;20194;-75
2022/12/26 14:08:51;;;;;;;0.50;0.50;;;12.30;99.90;;;;;;5113323;28;20190;-76
2022/12/26 14:11:34;;;;;;;0.30;0.30;;;12.30;99.90;;;;;;5104037;28;20310;-76
2022/12/26 14:14:13;;;;;;;0.40;0.40;;;12.30;99.90;;;;;;5099383;28;20932;-76
2022/12/26 14:16:49;;;;;;;0.40;0.40;;;12.30;99.90;;;;;;5097168;28;20198;-75
2022/12/26 14:19:42;;;;;;;0.40;0.40;;;12.30;99.90;;;;;;5108306;28;20724;-79
2022/12/26 14:22:18;;;;;;;0.67;0.67;;;12.30;99.90;;;;;;5100026;28;20234;-75
2022/12/26 14:24:57;;;;;;;0.50;0.50;;;12.30;99.90;;;;;;5106939;28;20264;-76
2022/12/26 14:27:33;;;;;;;0.40;0.40;;;12.30;99.90;;;;;;5107882;28;20697;-76
2022/12/26 14:30:17;;;;;;;0.60;0.60;;;12.30;99.90;;;;;;5105941;28;20586;-76
2022/12/26 14:33:00;;;;;;;0.30;0.30;;;12.30;99.90;;;;;;5095108;28;20840;-76
2022/12/26 14:35:32;;;;;;;0.30;0.30;;;12.30;99.90;;;;;;5100264;28;20222;-76
2022/12/26 14:38:11;;;;;;;0.33;0.33;;;12.30;99.90;;;;;;5101088;28;20228;-76
2022/12/26 14:40:56;;;;;;;0.30;0.30;;;12.30;99.90;;;;;;5103614;28;20646;-76
2022/12/26 14:43:33;;;;;;;0.50;0.50;;;12.30;99.90;;;;;;5105851;28;20225;-76
2022/12/26 14:46:02;;;;;;;0.50;0.50;;;12.20;99.90;;;;;;5079463;28;20225;-76
2022/12/26 14:48:57;;;;;;;0.50;0.50;;;12.20;99.90;;;;;;5098115;28;20219;-76
2022/12/26 14:51:37;;;;;;;0.40;0.40;;;12.20;99.90;;;;;;5103452;28;20202;-77
2022/12/26 14:54:37;;;;;;;0.40;0.40;;;12.10;99.90;;;;;;5096312;28;20219;-77
2022/12/26 14:57:52;;;;;;;0.40;0.40;;;12.10;99.90;;;;;;5103787;28;20213;-77
2022/12/26 15:00:41;;;;;;;0.60;0.60;;;12.10;99.90;;;;;;5107993;28;20251;-77
2022/12/26 15:03:38;;;;;;;0.40;0.40;;;12.10;99.90;;;;;;5098256;28;20741;-77
2022/12/26 15:06:40;;;;;;;0.40;0.40;;;12.10;99.90;;;;;;5103481;28;20203;-75
2022/12/26 15:09:33;;;;;;;0.40;0.40;;;12.10;99.90;;;;;;5101796;28;20205;-77
2022/12/26 15:12:17;;;;;;;0.60;0.60;;;12.20;99.90;;;;;;5108579;28;20282;-76
2022/12/26 15:15:16;;;;;;;0.50;0.50;;;12.20;99.90;;;;;;5101813;28;20275;-75
2022/12/26 15:18:00;;;;;;;0.40;0.40;;;12.20;99.90;;;;;;5101227;28;20198;-76
2022/12/26 15:20:45;;;;;;;0.50;0.50;;;12.20;99.90;;;;;;5105233;28;20535;-77
2022/12/26 15:23:54;;;;;;;0.60;0.60;;;12.20;99.90;;;;;;5097993;28;20222;-77
2022/12/26 15:26:51;;;;;;;0.43;0.43;;;12.20;99.90;;;;;;5074142;28;20596;-76
2022/12/26 15:29:39;;;;;;;0.40;0.40;;;12.20;99.90;;;;;;5108864;28;20186;-77
2022/12/26 15:32:14;;;;;;;0.43;0.43;;;12.20;99.90;;;;;;5102995;28;20195;-78
2022/12/26 15:34:53;;;;;;;0.40;0.40;;;12.20;99.90;;;;;;5103998;28;20281;-78
2022/12/26 15:37:38;;;;;;;0.33;0.33;;;12.30;99.90;;;;;;5109374;28;20194;-78
2022/12/26 15:40:13;;;;;;;0.30;0.30;;;12.20;99.90;;;;;;5113087;28;20586;-78
2022/12/26 15:43:00;;;;;;;0.40;0.40;;;12.20;99.90;;;;;;5105161;28;20698;-79
2022/12/26 15:45:44;;;;;;;0.40;0.40;;;12.20;99.90;;;;;;5106150;28;20194;-78
2022/12/26 15:48:27;;;;;;;0.30;0.30;;;12.30;99.90;;;;;;5113638;28;20205;-79
2022/12/26 15:50:59;;;;;;;0.50;0.50;;;12.30;99.90;;;;;;5107734;28;20716;-77
2022/12/26 15:53:44;;;;;;;0.60;0.60;;;12.30;99.90;;;;;;5108010;28;20251;-78
2022/12/26 15:56:48;;;;;;;0.30;0.30;;;12.30;99.90;;;;;;5112822;28;20214;-79
2022/12/26 15:59:44;;;;;;;0.30;0.30;;;12.30;99.90;;;;;;5091405;28;20237;-77
2022/12/26 16:02:14;;;;;;;0.50;0.50;;;12.20;99.90;;;;;;5117975;28;20248;-78
2022/12/26 16:04:46;;;;;;;0.60;0.60;;;12.30;99.90;;;;;;5103679;28;20526;-79
2022/12/26 16:07:24;;;;;;;0.60;0.60;;;12.20;99.90;;;;;;5116087;28;20259;-78
2022/12/26 16:09:53;;;;;;;0.60;0.60;;;12.20;99.90;;;;;;5092140;28;20201;-79
2022/12/26 16:12:26;;;;;;;0.40;0.40;;;12.20;99.90;;;;;;5114632;28;20202;-77